Spanish, Canada
Current Conditions -  °F | °C
As of 2:18 AM on Monday 22 Dec 2014 (Local Time) from CYZE Reporting Station
Overcast Overcast  
Wind Chill: 25°   Ceiling: 1900
Heat Index: 34°   Visibility: 9mi
Dew Point: 30°   Wind: 12mph
Humidity: 87%   Direction: 160°SSE
Pressure: 30.15"   Gusts: NA
Location:  46.19°N, 82.34°W
Report Text: CYZE 220718Z AUTO 16010KT 9SM OVC019 01/M01 A3015 RMK ICG PAST HR SLP219
Loading
Personal Weather Stations






























Interactive Weather Map New forecast layout! Learn more

10-Day Weather Forecast

Advertisements
Track Severe Weather on mobile